sensor_id;sensor_type;location;lat;lon;timestamp;P1;durP1;ratioP1;P2;durP2;ratioP2
34896;SDS011;43407;51.828;-2.298;2022-12-11T00:00:45;17.20;;;11.73;;
34896;SDS011;43407;51.828;-2.298;2022-12-11T00:03:17;15.73;;;10.88;;
34896;SDS011;43407;51.828;-2.298;2022-12-11T00:05:44;16.13;;;11.43;;
34896;SDS011;43407;51.828;-2.298;2022-12-11T00:08:12;14.52;;;11.35;;
34896;SDS011;43407;51.828;-2.298;2022-12-11T00:10:39;14.65;;;10.15;;
34896;SDS011;43407;51.828;-2.298;2022-12-11T00:13:12;13.40;;;9.55;;
34896;SDS011;43407;51.828;-2.298;2022-12-11T00:15:37;18.25;;;12.68;;
34896;SDS011;43407;51.828;-2.298;2022-12-11T00:18:03;20.33;;;13.52;;
34896;SDS011;43407;51.828;-2.298;2022-12-11T00:20:28;17.33;;;12.77;;
34896;SDS011;43407;51.828;-2.298;2022-12-11T00:22:56;18.17;;;12.68;;
34896;SDS011;43407;51.828;-2.298;2022-12-11T00:25:21;16.00;;;11.50;;
34896;SDS011;43407;51.828;-2.298;2022-12-11T00:27:53;17.38;;;13.02;;
34896;SDS011;43407;51.828;-2.298;2022-12-11T00:30:19;14.88;;;10.55;;
34896;SDS011;43407;51.828;-2.298;2022-12-11T00:32:50;17.67;;;13.05;;
34896;SDS011;43407;51.828;-2.298;2022-12-11T00:35:15;19.33;;;13.63;;
34896;SDS011;43407;51.828;-2.298;2022-12-11T00:37:44;18.55;;;13.32;;
34896;SDS011;43407;51.828;-2.298;2022-12-11T00:40:09;16.80;;;12.18;;
34896;SDS011;43407;51.828;-2.298;2022-12-11T00:42:40;19.30;;;13.23;;
34896;SDS011;43407;51.828;-2.298;2022-12-11T00:45:13;16.95;;;12.82;;
34896;SDS011;43407;51.828;-2.298;2022-12-11T00:47:42;20.05;;;12.63;;
34896;SDS011;43407;51.828;-2.298;2022-12-11T00:50:08;17.75;;;13.18;;
34896;SDS011;43407;51.828;-2.298;2022-12-11T00:52:33;15.02;;;11.57;;
34896;SDS011;43407;51.828;-2.298;2022-12-11T00:55:16;18.95;;;13.38;;
34896;SDS011;43407;51.828;-2.298;2022-12-11T00:57:44;15.75;;;12.32;;
34896;SDS011;43407;51.828;-2.298;2022-12-11T01:00:10;16.08;;;12.40;;
34896;SDS011;43407;51.828;-2.298;2022-12-11T01:02:39;15.60;;;11.85;;
34896;SDS011;43407;51.828;-2.298;2022-12-11T01:05:08;17.08;;;11.65;;
34896;SDS011;43407;51.828;-2.298;2022-12-11T01:07:33;13.88;;;10.57;;
34896;SDS011;43407;51.828;-2.298;2022-12-11T01:10:04;16.33;;;11.43;;
34896;SDS011;43407;51.828;-2.298;2022-12-11T01:12:52;15.20;;;10.98;;
34896;SDS011;43407;51.828;-2.298;2022-12-11T01:15:22;24.63;;;11.63;;
34896;SDS011;43407;51.828;-2.298;2022-12-11T01:17:50;35.42;;;10.80;;
34896;SDS011;43407;51.828;-2.298;2022-12-11T01:20:16;54.05;;;12.98;;
34896;SDS011;43407;51.828;-2.298;2022-12-11T01:22:46;18.73;;;12.20;;
34896;SDS011;43407;51.828;-2.298;2022-12-11T01:25:11;46.60;;;14.60;;
34896;SDS011;43407;51.828;-2.298;2022-12-11T01:27:40;96.93;;;14.15;;
34896;SDS011;43407;51.828;-2.298;2022-12-11T01:30:11;16.15;;;10.93;;
34896;SDS011;43407;51.828;-2.298;2022-12-11T01:32:38;33.42;;;10.68;;
34896;SDS011;43407;51.828;-2.298;2022-12-11T01:35:04;33.83;;;11.52;;
34896;SDS011;43407;51.828;-2.298;2022-12-11T01:37:31;15.25;;;11.35;;
34896;SDS011;43407;51.828;-2.298;2022-12-11T01:39:59;18.38;;;12.68;;
34896;SDS011;43407;51.828;-2.298;2022-12-11T01:42:25;17.80;;;12.20;;
34896;SDS011;43407;51.828;-2.298;2022-12-11T01:50:02;15.68;;;11.50;;
34896;SDS011;43407;51.828;-2.298;2022-12-11T01:52:31;16.95;;;12.38;;
34896;SDS011;43407;51.828;-2.298;2022-12-11T01:54:57;16.80;;;11.13;;
34896;SDS011;43407;51.828;-2.298;2022-12-11T01:57:22;14.68;;;10.50;;
34896;SDS011;43407;51.828;-2.298;2022-12-11T01:59:50;16.13;;;12.27;;
34896;SDS011;43407;51.828;-2.298;2022-12-11T02:02:18;18.08;;;11.13;;
34896;SDS011;43407;51.828;-2.298;2022-12-11T02:04:47;17.23;;;11.70;;
34896;SDS011;43407;51.828;-2.298;2022-12-11T02:07:13;15.63;;;11.18;;
34896;SDS011;43407;51.828;-2.298;2022-12-11T02:09:40;15.38;;;12.27;;
34896;SDS011;43407;51.828;-2.298;2022-12-11T02:20:36;14.40;;;10.93;;
34896;SDS011;43407;51.828;-2.298;2022-12-11T02:28:54;18.10;;;12.10;;
34896;SDS011;43407;51.828;-2.298;2022-12-11T02:34:28;12.60;;;9.77;;
34896;SDS011;43407;51.828;-2.298;2022-12-11T02:36:57;12.02;;;9.63;;
34896;SDS011;43407;51.828;-2.298;2022-12-11T02:39:28;18.10;;;12.80;;
34896;SDS011;43407;51.828;-2.298;2022-12-11T02:41:53;17.83;;;12.27;;
34896;SDS011;43407;51.828;-2.298;2022-12-11T02:44:21;13.30;;;11.05;;
34896;SDS011;43407;51.828;-2.298;2022-12-11T02:46:50;19.95;;;14.20;;
34896;SDS011;43407;51.828;-2.298;2022-12-11T02:49:19;18.42;;;13.82;;
34896;SDS011;43407;51.828;-2.298;2022-12-11T02:51:45;17.85;;;13.30;;
34896;SDS011;43407;51.828;-2.298;2022-12-11T02:54:15;19.65;;;12.55;;
34896;SDS011;43407;51.828;-2.298;2022-12-11T02:56:49;23.13;;;12.38;;
34896;SDS011;43407;51.828;-2.298;2022-12-11T02:59:22;23.15;;;13.07;;
34896;SDS011;43407;51.828;-2.298;2022-12-11T03:01:58;14.10;;;10.60;;
34896;SDS011;43407;51.828;-2.298;2022-12-11T03:04:24;34.25;;;12.93;;
34896;SDS011;43407;51.828;-2.298;2022-12-11T03:06:54;15.95;;;12.00;;
34896;SDS011;43407;51.828;-2.298;2022-12-11T03:09:24;14.00;;;11.02;;
34896;SDS011;43407;51.828;-2.298;2022-12-11T03:11:50;15.95;;;12.27;;
34896;SDS011;43407;51.828;-2.298;2022-12-11T03:14:19;22.70;;;11.27;;
34896;SDS011;43407;51.828;-2.298;2022-12-11T03:16:51;16.15;;;10.93;;
34896;SDS011;43407;51.828;-2.298;2022-12-11T03:19:29;20.20;;;11.77;;
34896;SDS011;43407;51.828;-2.298;2022-12-11T03:29:59;36.30;;;12.73;;
34896;SDS011;43407;51.828;-2.298;2022-12-11T03:32:35;16.10;;;11.88;;
34896;SDS011;43407;51.828;-2.298;2022-12-11T03:35:26;17.25;;;12.13;;
34896;SDS011;43407;51.828;-2.298;2022-12-11T03:37:56;18.02;;;13.32;;
34896;SDS011;43407;51.828;-2.298;2022-12-11T03:40:25;15.88;;;11.30;;
34896;SDS011;43407;51.828;-2.298;2022-12-11T03:42:55;20.40;;;12.15;;
34896;SDS011;43407;51.828;-2.298;2022-12-11T03:45:21;16.80;;;11.60;;
34896;SDS011;43407;51.828;-2.298;2022-12-11T03:47:47;17.65;;;12.50;;
34896;SDS011;43407;51.828;-2.298;2022-12-11T03:50:14;18.00;;;13.18;;
34896;SDS011;43407;51.828;-2.298;2022-12-11T03:52:41;16.95;;;13.20;;
34896;SDS011;43407;51.828;-2.298;2022-12-11T03:55:07;17.63;;;13.93;;
34896;SDS011;43407;51.828;-2.298;2022-12-11T03:57:35;22.13;;;13.38;;
34896;SDS011;43407;51.828;-2.298;2022-12-11T04:00:07;19.02;;;13.90;;
34896;SDS011;43407;51.828;-2.298;2022-12-11T04:02:35;19.33;;;13.85;;
34896;SDS011;43407;51.828;-2.298;2022-12-11T04:05:00;19.25;;;13.25;;
34896;SDS011;43407;51.828;-2.298;2022-12-11T04:07:26;18.48;;;13.25;;
34896;SDS011;43407;51.828;-2.298;2022-12-11T04:09:52;17.17;;;12.63;;
34896;SDS011;43407;51.828;-2.298;2022-12-11T04:12:18;16.75;;;13.25;;
34896;SDS011;43407;51.828;-2.298;2022-12-11T04:14:44;18.42;;;12.95;;
34896;SDS011;43407;51.828;-2.298;2022-12-11T04:17:37;15.80;;;11.63;;
34896;SDS011;43407;51.828;-2.298;2022-12-11T04:20:40;15.43;;;11.95;;
34896;SDS011;43407;51.828;-2.298;2022-12-11T04:23:25;17.73;;;12.52;;
34896;SDS011;43407;51.828;-2.298;2022-12-11T04:26:12;15.88;;;11.57;;
34896;SDS011;43407;51.828;-2.298;2022-12-11T04:28:40;36.03;;;12.40;;
34896;SDS011;43407;51.828;-2.298;2022-12-11T04:31:10;78.35;;;14.77;;
34896;SDS011;43407;51.828;-2.298;2022-12-11T04:33:36;19.20;;;11.80;;
34896;SDS011;43407;51.828;-2.298;2022-12-11T04:36:02;33.80;;;14.52;;
34896;SDS011;43407;51.828;-2.298;2022-12-11T04:38:30;16.73;;;12.65;;
34896;SDS011;43407;51.828;-2.298;2022-12-11T04:40:56;50.70;;;14.57;;
34896;SDS011;43407;51.828;-2.298;2022-12-11T04:43:25;24.40;;;13.68;;
34896;SDS011;43407;51.828;-2.298;2022-12-11T04:45:59;35.38;;;14.57;;
34896;SDS011;43407;51.828;-2.298;2022-12-11T04:48:54;41.53;;;13.77;;
34896;SDS011;43407;51.828;-2.298;2022-12-11T04:51:19;29.20;;;13.05;;
34896;SDS011;43407;51.828;-2.298;2022-12-11T04:53:45;20.80;;;13.60;;
34896;SDS011;43407;51.828;-2.298;2022-12-11T04:56:11;21.63;;;10.63;;
34896;SDS011;43407;51.828;-2.298;2022-12-11T04:58:38;28.80;;;10.57;;
34896;SDS011;43407;51.828;-2.298;2022-12-11T05:01:08;21.15;;;13.57;;
34896;SDS011;43407;51.828;-2.298;2022-12-11T05:03:34;17.55;;;13.02;;
34896;SDS011;43407;51.828;-2.298;2022-12-11T05:06:00;13.18;;;9.85;;
34896;SDS011;43407;51.828;-2.298;2022-12-11T05:08:26;21.48;;;13.05;;
34896;SDS011;43407;51.828;-2.298;2022-12-11T05:10:58;14.27;;;11.00;;
34896;SDS011;43407;51.828;-2.298;2022-12-11T05:13:25;17.85;;;12.50;;
34896;SDS011;43407;51.828;-2.298;2022-12-11T05:15:54;18.55;;;13.85;;
34896;SDS011;43407;51.828;-2.298;2022-12-11T05:18:20;12.35;;;11.05;;
34896;SDS011;43407;51.828;-2.298;2022-12-11T05:20:59;19.15;;;13.25;;
34896;SDS011;43407;51.828;-2.298;2022-12-11T05:23:26;17.23;;;12.63;;
34896;SDS011;43407;51.828;-2.298;2022-12-11T05:25:53;15.80;;;12.23;;
34896;SDS011;43407;51.828;-2.298;2022-12-11T05:28:20;16.48;;;12.40;;
34896;SDS011;43407;51.828;-2.298;2022-12-11T05:30:53;14.45;;;12.07;;
34896;SDS011;43407;51.828;-2.298;2022-12-11T05:33:39;17.15;;;12.07;;
34896;SDS011;43407;51.828;-2.298;2022-12-11T05:36:05;16.77;;;12.18;;
34896;SDS011;43407;51.828;-2.298;2022-12-11T05:38:31;16.13;;;12.23;;
34896;SDS011;43407;51.828;-2.298;2022-12-11T05:41:00;16.25;;;12.52;;
34896;SDS011;43407;51.828;-2.298;2022-12-11T05:43:29;15.35;;;11.98;;
34896;SDS011;43407;51.828;-2.298;2022-12-11T05:45:56;16.48;;;12.88;;
34896;SDS011;43407;51.828;-2.298;2022-12-11T05:48:29;31.35;;;13.60;;
34896;SDS011;43407;51.828;-2.298;2022-12-11T05:51:01;20.30;;;12.95;;
34896;SDS011;43407;51.828;-2.298;2022-12-11T05:53:32;73.63;;;14.50;;
34896;SDS011;43407;51.828;-2.298;2022-12-11T05:56:04;93.55;;;17.45;;
34896;SDS011;43407;51.828;-2.298;2022-12-11T05:58:57;24.48;;;12.32;;
34896;SDS011;43407;51.828;-2.298;2022-12-11T06:01:24;28.05;;;12.02;;
34896;SDS011;43407;51.828;-2.298;2022-12-11T06:03:50;78.82;;;14.32;;
34896;SDS011;43407;51.828;-2.298;2022-12-11T06:06:18;18.50;;;10.85;;
34896;SDS011;43407;51.828;-2.298;2022-12-11T06:08:44;30.35;;;14.55;;
34896;SDS011;43407;51.828;-2.298;2022-12-11T06:11:11;70.15;;;15.55;;
34896;SDS011;43407;51.828;-2.298;2022-12-11T06:13:38;18.73;;;13.00;;
34896;SDS011;43407;51.828;-2.298;2022-12-11T06:16:04;27.65;;;12.68;;
34896;SDS011;43407;51.828;-2.298;2022-12-11T06:18:38;53.30;;;13.65;;
34896;SDS011;43407;51.828;-2.298;2022-12-11T06:21:13;111.45;;;15.75;;
34896;SDS011;43407;51.828;-2.298;2022-12-11T06:23:40;19.85;;;10.77;;
34896;SDS011;43407;51.828;-2.298;2022-12-11T06:26:07;25.70;;;12.25;;
34896;SDS011;43407;51.828;-2.298;2022-12-11T06:28:36;16.52;;;11.38;;
34896;SDS011;43407;51.828;-2.298;2022-12-11T06:31:01;51.53;;;13.68;;
34896;SDS011;43407;51.828;-2.298;2022-12-11T06:33:27;19.42;;;12.52;;
34896;SDS011;43407;51.828;-2.298;2022-12-11T06:35:53;18.98;;;13.88;;
34896;SDS011;43407;51.828;-2.298;2022-12-11T06:38:18;22.20;;;11.80;;
34896;SDS011;43407;51.828;-2.298;2022-12-11T06:40:44;26.10;;;11.07;;
34896;SDS011;43407;51.828;-2.298;2022-12-11T06:43:09;173.75;;;18.88;;
34896;SDS011;43407;51.828;-2.298;2022-12-11T06:45:35;35.40;;;13.40;;
34896;SDS011;43407;51.828;-2.298;2022-12-11T06:48:01;26.77;;;12.85;;
34896;SDS011;43407;51.828;-2.298;2022-12-11T06:50:27;184.40;;;21.33;;
34896;SDS011;43407;51.828;-2.298;2022-12-11T06:52:54;19.70;;;13.15;;
34896;SDS011;43407;51.828;-2.298;2022-12-11T06:55:20;53.60;;;15.27;;
34896;SDS011;43407;51.828;-2.298;2022-12-11T06:57:45;71.28;;;15.35;;
34896;SDS011;43407;51.828;-2.298;2022-12-11T07:00:11;37.58;;;15.07;;
34896;SDS011;43407;51.828;-2.298;2022-12-11T07:02:37;19.98;;;13.20;;
34896;SDS011;43407;51.828;-2.298;2022-12-11T07:05:04;28.77;;;12.93;;
34896;SDS011;43407;51.828;-2.298;2022-12-11T07:07:30;20.27;;;14.43;;
34896;SDS011;43407;51.828;-2.298;2022-12-11T07:09:57;37.70;;;13.98;;
34896;SDS011;43407;51.828;-2.298;2022-12-11T07:12:23;22.42;;;13.13;;
34896;SDS011;43407;51.828;-2.298;2022-12-11T07:14:49;18.88;;;13.30;;
34896;SDS011;43407;51.828;-2.298;2022-12-11T07:17:16;41.72;;;14.65;;
34896;SDS011;43407;51.828;-2.298;2022-12-11T07:19:42;20.10;;;13.02;;
34896;SDS011;43407;51.828;-2.298;2022-12-11T07:22:08;32.70;;;13.82;;
34896;SDS011;43407;51.828;-2.298;2022-12-11T07:24:34;65.40;;;15.23;;
34896;SDS011;43407;51.828;-2.298;2022-12-11T07:27:02;69.80;;;15.20;;
34896;SDS011;43407;51.828;-2.298;2022-12-11T07:29:31;28.00;;;12.85;;
34896;SDS011;43407;51.828;-2.298;2022-12-11T07:31:56;33.97;;;15.43;;
34896;SDS011;43407;51.828;-2.298;2022-12-11T07:34:25;57.08;;;15.00;;
34896;SDS011;43407;51.828;-2.298;2022-12-11T07:36:51;83.35;;;16.40;;
34896;SDS011;43407;51.828;-2.298;2022-12-11T07:39:17;17.95;;;11.10;;
34896;SDS011;43407;51.828;-2.298;2022-12-11T07:41:43;20.17;;;15.18;;
34896;SDS011;43407;51.828;-2.298;2022-12-11T07:44:11;69.07;;;17.42;;
34896;SDS011;43407;51.828;-2.298;2022-12-11T07:46:36;18.30;;;14.57;;
34896;SDS011;43407;51.828;-2.298;2022-12-11T07:49:03;30.17;;;15.63;;
34896;SDS011;43407;51.828;-2.298;2022-12-11T07:51:35;17.85;;;14.65;;
34896;SDS011;43407;51.828;-2.298;2022-12-11T07:54:03;37.47;;;14.88;;
34896;SDS011;43407;51.828;-2.298;2022-12-11T07:56:32;44.60;;;15.85;;
34896;SDS011;43407;51.828;-2.298;2022-12-11T07:58:59;43.53;;;15.00;;
34896;SDS011;43407;51.828;-2.298;2022-12-11T08:01:28;20.30;;;13.40;;
34896;SDS011;43407;51.828;-2.298;2022-12-11T08:03:55;18.10;;;13.68;;
34896;SDS011;43407;51.828;-2.298;2022-12-11T08:06:25;20.90;;;13.00;;
34896;SDS011;43407;51.828;-2.298;2022-12-11T08:08:55;25.77;;;14.90;;
34896;SDS011;43407;51.828;-2.298;2022-12-11T08:11:24;18.02;;;13.68;;
34896;SDS011;43407;51.828;-2.298;2022-12-11T08:13:50;20.98;;;12.75;;
34896;SDS011;43407;51.828;-2.298;2022-12-11T08:16:16;64.55;;;15.00;;
34896;SDS011;43407;51.828;-2.298;2022-12-11T08:18:42;126.70;;;16.40;;
34896;SDS011;43407;51.828;-2.298;2022-12-11T08:21:10;58.22;;;12.82;;
34896;SDS011;43407;51.828;-2.298;2022-12-11T08:23:40;23.80;;;10.70;;
34896;SDS011;43407;51.828;-2.298;2022-12-11T08:26:07;16.40;;;12.93;;
34896;SDS011;43407;51.828;-2.298;2022-12-11T08:28:36;18.17;;;11.85;;
34896;SDS011;43407;51.828;-2.298;2022-12-11T08:31:02;32.67;;;13.40;;
34896;SDS011;43407;51.828;-2.298;2022-12-11T08:33:29;25.38;;;12.25;;
34896;SDS011;43407;51.828;-2.298;2022-12-11T08:35:54;14.48;;;11.20;;
34896;SDS011;43407;51.828;-2.298;2022-12-11T08:38:20;54.58;;;14.10;;
34896;SDS011;43407;51.828;-2.298;2022-12-11T08:40:45;68.40;;;13.13;;
34896;SDS011;43407;51.828;-2.298;2022-12-11T08:43:11;81.10;;;15.35;;
34896;SDS011;43407;51.828;-2.298;2022-12-11T08:45:36;94.05;;;16.13;;
34896;SDS011;43407;51.828;-2.298;2022-12-11T08:48:03;19.05;;;13.85;;
34896;SDS011;43407;51.828;-2.298;2022-12-11T08:50:31;17.75;;;12.05;;
34896;SDS011;43407;51.828;-2.298;2022-12-11T08:52:57;15.85;;;11.57;;
34896;SDS011;43407;51.828;-2.298;2022-12-11T08:55:22;15.65;;;11.90;;
34896;SDS011;43407;51.828;-2.298;2022-12-11T08:57:48;16.20;;;11.85;;
34896;SDS011;43407;51.828;-2.298;2022-12-11T09:00:13;15.63;;;11.40;;
34896;SDS011;43407;51.828;-2.298;2022-12-11T09:02:40;16.75;;;12.65;;
34896;SDS011;43407;51.828;-2.298;2022-12-11T09:05:05;15.15;;;11.82;;
34896;SDS011;43407;51.828;-2.298;2022-12-11T09:07:33;17.55;;;12.32;;
34896;SDS011;43407;51.828;-2.298;2022-12-11T09:10:00;14.23;;;10.93;;
34896;SDS011;43407;51.828;-2.298;2022-12-11T09:12:28;15.05;;;11.07;;
34896;SDS011;43407;51.828;-2.298;2022-12-11T09:14:53;15.88;;;10.13;;
34896;SDS011;43407;51.828;-2.298;2022-12-11T09:17:19;22.35;;;10.05;;
34896;SDS011;43407;51.828;-2.298;2022-12-11T09:19:44;19.65;;;11.75;;
34896;SDS011;43407;51.828;-2.298;2022-12-11T09:22:10;12.82;;;9.90;;
34896;SDS011;43407;51.828;-2.298;2022-12-11T09:24:36;14.73;;;11.23;;
34896;SDS011;43407;51.828;-2.298;2022-12-11T09:27:02;17.13;;;11.30;;
34896;SDS011;43407;51.828;-2.298;2022-12-11T09:29:28;12.25;;;10.13;;
34896;SDS011;43407;51.828;-2.298;2022-12-11T09:31:54;18.55;;;12.75;;
34896;SDS011;43407;51.828;-2.298;2022-12-11T09:34:22;15.32;;;10.80;;
34896;SDS011;43407;51.828;-2.298;2022-12-11T09:36:50;13.93;;;10.23;;
34896;SDS011;43407;51.828;-2.298;2022-12-11T09:39:16;13.57;;;10.35;;
34896;SDS011;43407;51.828;-2.298;2022-12-11T09:46:43;13.77;;;10.80;;
34896;SDS011;43407;51.828;-2.298;2022-12-11T09:51:58;11.77;;;9.45;;
34896;SDS011;43407;51.828;-2.298;2022-12-11T09:54:29;14.82;;;10.25;;
34896;SDS011;43407;51.828;-2.298;2022-12-11T09:57:02;12.55;;;9.07;;
34896;SDS011;43407;51.828;-2.298;2022-12-11T10:05:00;15.80;;;10.60;;
34896;SDS011;43407;51.828;-2.298;2022-12-11T10:07:55;13.88;;;9.55;;
34896;SDS011;43407;51.828;-2.298;2022-12-11T10:18:33;10.82;;;8.70;;
34896;SDS011;43407;51.828;-2.298;2022-12-11T10:21:00;10.35;;;8.05;;
34896;SDS011;43407;51.828;-2.298;2022-12-11T10:23:28;10.55;;;8.10;;
34896;SDS011;43407;51.828;-2.298;2022-12-11T10:26:05;12.40;;;8.97;;
34896;SDS011;43407;51.828;-2.298;2022-12-11T10:28:33;9.80;;;7.40;;
34896;SDS011;43407;51.828;-2.298;2022-12-11T10:33:59;11.90;;;8.13;;
34896;SDS011;43407;51.828;-2.298;2022-12-11T10:36:30;9.80;;;7.90;;
34896;SDS011;43407;51.828;-2.298;2022-12-11T10:38:58;10.88;;;8.05;;
34896;SDS011;43407;51.828;-2.298;2022-12-11T10:41:31;9.20;;;7.30;;
34896;SDS011;43407;51.828;-2.298;2022-12-11T10:44:11;13.43;;;8.60;;
34896;SDS011;43407;51.828;-2.298;2022-12-11T10:46:38;11.82;;;8.25;;
34896;SDS011;43407;51.828;-2.298;2022-12-11T10:49:04;13.88;;;10.07;;
34896;SDS011;43407;51.828;-2.298;2022-12-11T10:53:57;25.27;;;16.13;;
34896;SDS011;43407;51.828;-2.298;2022-12-11T10:56:30;18.42;;;12.98;;
34896;SDS011;43407;51.828;-2.298;2022-12-11T10:58:57;14.45;;;10.68;;
34896;SDS011;43407;51.828;-2.298;2022-12-11T11:01:24;15.07;;;10.70;;
34896;SDS011;43407;51.828;-2.298;2022-12-11T11:04:04;10.93;;;9.15;;
34896;SDS011;43407;51.828;-2.298;2022-12-11T11:06:31;10.35;;;8.57;;
34896;SDS011;43407;51.828;-2.298;2022-12-11T11:09:00;13.15;;;8.82;;
34896;SDS011;43407;51.828;-2.298;2022-12-11T11:11:49;11.45;;;8.43;;
34896;SDS011;43407;51.828;-2.298;2022-12-11T11:14:16;14.20;;;8.35;;
34896;SDS011;43407;51.828;-2.298;2022-12-11T11:16:44;14.93;;;8.95;;
34896;SDS011;43407;51.828;-2.298;2022-12-11T11:19:17;11.00;;;8.75;;
34896;SDS011;43407;51.828;-2.298;2022-12-11T11:21:56;13.57;;;9.40;;
34896;SDS011;43407;51.828;-2.298;2022-12-11T11:24:32;15.65;;;11.45;;
34896;SDS011;43407;51.828;-2.298;2022-12-11T11:27:00;15.55;;;10.20;;
34896;SDS011;43407;51.828;-2.298;2022-12-11T11:29:31;13.80;;;10.18;;
34896;SDS011;43407;51.828;-2.298;2022-12-11T11:32:19;14.73;;;10.20;;
34896;SDS011;43407;51.828;-2.298;2022-12-11T11:34:46;12.57;;;9.60;;
34896;SDS011;43407;51.828;-2.298;2022-12-11T11:37:31;14.20;;;9.77;;
34896;SDS011;43407;51.828;-2.298;2022-12-11T11:40:41;14.57;;;10.40;;
34896;SDS011;43407;51.828;-2.298;2022-12-11T11:45:37;10.40;;;8.82;;
34896;SDS011;43407;51.828;-2.298;2022-12-11T11:50:51;10.93;;;8.15;;
34896;SDS011;43407;51.828;-2.298;2022-12-11T11:53:31;9.90;;;8.65;;
34896;SDS011;43407;51.828;-2.298;2022-12-11T11:56:08;12.30;;;8.70;;
34896;SDS011;43407;51.828;-2.298;2022-12-11T11:58:56;10.77;;;8.43;;
34896;SDS011;43407;51.828;-2.298;2022-12-11T12:01:41;10.32;;;8.23;;
34896;SDS011;43407;51.828;-2.298;2022-12-11T12:04:07;11.23;;;8.73;;
34896;SDS011;43407;51.828;-2.298;2022-12-11T12:11:46;12.52;;;9.93;;
34896;SDS011;43407;51.828;-2.298;2022-12-11T12:17:13;14.98;;;9.85;;
34896;SDS011;43407;51.828;-2.298;2022-12-11T12:25:21;13.13;;;10.25;;
34896;SDS011;43407;51.828;-2.298;2022-12-11T12:27:54;22.50;;;11.13;;
34896;SDS011;43407;51.828;-2.298;2022-12-11T12:30:48;19.60;;;12.07;;
34896;SDS011;43407;51.828;-2.298;2022-12-11T12:33:28;17.77;;;11.02;;
34896;SDS011;43407;51.828;-2.298;2022-12-11T12:36:05;16.10;;;12.00;;
34896;SDS011;43407;51.828;-2.298;2022-12-11T12:41:34;18.48;;;13.65;;
34896;SDS011;43407;51.828;-2.298;2022-12-11T12:44:13;17.42;;;13.50;;
34896;SDS011;43407;51.828;-2.298;2022-12-11T12:52:23;13.85;;;11.13;;
34896;SDS011;43407;51.828;-2.298;2022-12-11T12:54:55;15.32;;;12.07;;
34896;SDS011;43407;51.828;-2.298;2022-12-11T12:57:58;13.57;;;10.75;;
34896;SDS011;43407;51.828;-2.298;2022-12-11T13:03:09;12.90;;;10.57;;
34896;SDS011;43407;51.828;-2.298;2022-12-11T13:05:57;11.98;;;9.93;;
34896;SDS011;43407;51.828;-2.298;2022-12-11T13:08:25;12.85;;;10.20;;
34896;SDS011;43407;51.828;-2.298;2022-12-11T13:11:01;18.92;;;10.60;;
34896;SDS011;43407;51.828;-2.298;2022-12-11T13:13:36;134.15;;;13.90;;
34896;SDS011;43407;51.828;-2.298;2022-12-11T13:16:25;123.63;;;14.50;;
34896;SDS011;43407;51.828;-2.298;2022-12-11T13:18:52;107.78;;;13.25;;
34896;SDS011;43407;51.828;-2.298;2022-12-11T13:21:32;40.42;;;11.18;;
34896;SDS011;43407;51.828;-2.298;2022-12-11T13:26:46;22.10;;;11.90;;
34896;SDS011;43407;51.828;-2.298;2022-12-11T13:34:49;70.63;;;14.15;;
34896;SDS011;43407;51.828;-2.298;2022-12-11T13:43:05;117.22;;;16.02;;
34896;SDS011;43407;51.828;-2.298;2022-12-11T13:45:50;46.40;;;16.42;;
34896;SDS011;43407;51.828;-2.298;2022-12-11T13:50:51;22.45;;;15.25;;
34896;SDS011;43407;51.828;-2.298;2022-12-11T13:53:20;46.40;;;17.13;;
34896;SDS011;43407;51.828;-2.298;2022-12-11T13:55:46;71.18;;;16.35;;
34896;SDS011;43407;51.828;-2.298;2022-12-11T13:58:33;25.17;;;15.52;;
34896;SDS011;43407;51.828;-2.298;2022-12-11T14:01:09;23.40;;;13.90;;
34896;SDS011;43407;51.828;-2.298;2022-12-11T14:06:14;75.43;;;17.55;;
34896;SDS011;43407;51.828;-2.298;2022-12-11T14:08:41;105.93;;;18.20;;
34896;SDS011;43407;51.828;-2.298;2022-12-11T14:11:11;46.33;;;16.48;;
34896;SDS011;43407;51.828;-2.298;2022-12-11T14:13:44;51.47;;;16.23;;
34896;SDS011;43407;51.828;-2.298;2022-12-11T14:16:13;135.48;;;17.42;;
34896;SDS011;43407;51.828;-2.298;2022-12-11T14:18:47;26.20;;;15.80;;
34896;SDS011;43407;51.828;-2.298;2022-12-11T14:21:18;139.05;;;21.27;;
34896;SDS011;43407;51.828;-2.298;2022-12-11T14:23:58;30.30;;;17.08;;
34896;SDS011;43407;51.828;-2.298;2022-12-11T14:28:53;26.17;;;16.17;;
34896;SDS011;43407;51.828;-2.298;2022-12-11T14:31:29;55.28;;;18.15;;
34896;SDS011;43407;51.828;-2.298;2022-12-11T14:36:53;48.67;;;17.77;;
34896;SDS011;43407;51.828;-2.298;2022-12-11T14:44:59;37.22;;;16.92;;
34896;SDS011;43407;51.828;-2.298;2022-12-11T14:47:26;26.83;;;17.42;;
34896;SDS011;43407;51.828;-2.298;2022-12-11T14:49:58;29.55;;;17.77;;
34896;SDS011;43407;51.828;-2.298;2022-12-11T14:52:34;40.83;;;16.63;;
34896;SDS011;43407;51.828;-2.298;2022-12-11T14:55:04;31.40;;;16.17;;
34896;SDS011;43407;51.828;-2.298;2022-12-11T14:57:33;28.20;;;17.20;;
34896;SDS011;43407;51.828;-2.298;2022-12-11T14:59:59;28.08;;;17.55;;
34896;SDS011;43407;51.828;-2.298;2022-12-11T15:02:32;30.58;;;20.02;;
34896;SDS011;43407;51.828;-2.298;2022-12-11T15:05:10;30.20;;;18.38;;
34896;SDS011;43407;51.828;-2.298;2022-12-11T15:07:41;29.83;;;20.23;;
34896;SDS011;43407;51.828;-2.298;2022-12-11T15:10:20;25.92;;;16.90;;
34896;SDS011;43407;51.828;-2.298;2022-12-11T15:13:14;61.97;;;20.20;;
34896;SDS011;43407;51.828;-2.298;2022-12-11T15:15:54;153.52;;;22.10;;
34896;SDS011;43407;51.828;-2.298;2022-12-11T15:18:30;76.60;;;20.52;;
34896;SDS011;43407;51.828;-2.298;2022-12-11T15:21:12;32.20;;;19.33;;
34896;SDS011;43407;51.828;-2.298;2022-12-11T15:26:19;33.80;;;18.40;;
34896;SDS011;43407;51.828;-2.298;2022-12-11T15:28:45;28.08;;;17.88;;
34896;SDS011;43407;51.828;-2.298;2022-12-11T15:31:25;32.97;;;19.65;;
34896;SDS011;43407;51.828;-2.298;2022-12-11T15:33:57;25.50;;;15.53;;
34896;SDS011;43407;51.828;-2.298;2022-12-11T15:36:24;25.30;;;16.70;;
34896;SDS011;43407;51.828;-2.298;2022-12-11T15:39:02;29.63;;;17.88;;
34896;SDS011;43407;51.828;-2.298;2022-12-11T15:41:33;20.73;;;14.13;;
34896;SDS011;43407;51.828;-2.298;2022-12-11T15:44:08;26.05;;;17.67;;
34896;SDS011;43407;51.828;-2.298;2022-12-11T15:46:45;25.65;;;16.38;;
34896;SDS011;43407;51.828;-2.298;2022-12-11T15:49:16;38.83;;;17.45;;
34896;SDS011;43407;51.828;-2.298;2022-12-11T15:51:47;43.92;;;16.90;;
34896;SDS011;43407;51.828;-2.298;2022-12-11T15:54:13;148.52;;;22.23;;
34896;SDS011;43407;51.828;-2.298;2022-12-11T15:56:39;211.93;;;24.88;;
34896;SDS011;43407;51.828;-2.298;2022-12-11T15:59:08;171.48;;;21.73;;
34896;SDS011;43407;51.828;-2.298;2022-12-11T16:01:34;98.43;;;20.42;;
34896;SDS011;43407;51.828;-2.298;2022-12-11T16:04:04;93.90;;;19.65;;
34896;SDS011;43407;51.828;-2.298;2022-12-11T16:06:30;46.67;;;20.30;;
34896;SDS011;43407;51.828;-2.298;2022-12-11T16:08:55;32.78;;;19.35;;
34896;SDS011;43407;51.828;-2.298;2022-12-11T16:11:21;34.10;;;20.25;;
34896;SDS011;43407;51.828;-2.298;2022-12-11T16:13:46;27.45;;;17.23;;
34896;SDS011;43407;51.828;-2.298;2022-12-11T16:16:12;30.52;;;19.60;;
34896;SDS011;43407;51.828;-2.298;2022-12-11T16:18:37;30.38;;;19.30;;
34896;SDS011;43407;51.828;-2.298;2022-12-11T16:21:04;30.25;;;19.45;;
34896;SDS011;43407;51.828;-2.298;2022-12-11T16:23:32;30.65;;;18.48;;
34896;SDS011;43407;51.828;-2.298;2022-12-11T16:25:58;38.17;;;18.58;;
34896;SDS011;43407;51.828;-2.298;2022-12-11T16:28:26;76.18;;;20.17;;